createdAt,value
2017-09-12T00:01:06.318Z,993.80
2017-09-12T00:03:07.909Z,993.78
2017-09-12T00:05:09.324Z,993.82
2017-09-12T00:07:10.749Z,993.81
2017-09-12T00:09:12.164Z,993.78
2017-09-12T00:11:13.592Z,993.80
2017-09-12T00:13:15.008Z,993.79
2017-09-12T00:15:16.426Z,993.75
2017-09-12T00:17:17.857Z,993.85
2017-09-12T00:19:19.252Z,993.77
2017-09-12T00:21:20.671Z,993.81
2017-09-12T00:24:03.084Z,993.81
2017-09-12T00:26:04.499Z,993.90
2017-09-12T00:28:05.914Z,993.87
2017-09-12T00:30:07.815Z,993.87
2017-09-12T00:32:09.403Z,993.92
2017-09-12T00:34:10.799Z,993.92
2017-09-12T00:36:12.214Z,993.89
2017-09-12T00:38:13.627Z,993.89
2017-09-12T00:40:15.048Z,993.95
2017-09-12T00:42:16.505Z,993.92
2017-09-12T00:44:17.952Z,993.92
2017-09-12T00:46:19.455Z,993.89
2017-09-12T00:48:20.846Z,993.95
2017-09-12T00:50:22.349Z,993.88
2017-09-12T00:52:23.844Z,993.87
2017-09-12T00:54:25.271Z,993.90
2017-09-12T00:56:26.829Z,993.85
2017-09-12T00:58:28.304Z,993.99
2017-09-12T01:00:29.803Z,993.94
2017-09-12T01:02:31.276Z,993.98
2017-09-12T01:04:32.842Z,994.05
2017-09-12T01:06:34.286Z,994.07
2017-09-12T01:08:35.763Z,994.02
2017-09-12T01:10:37.259Z,994.06
2017-09-12T01:12:38.784Z,994.10
2017-09-12T01:14:40.261Z,994.07
2017-09-12T01:16:41.806Z,994.14
2017-09-12T01:18:43.388Z,994.12
2017-09-12T01:20:44.841Z,994.16
2017-09-12T01:22:46.348Z,994.22
2017-09-12T01:24:47.821Z,994.16
2017-09-12T01:27:30.217Z,994.18
2017-09-12T01:29:31.706Z,994.21
2017-09-12T01:31:33.087Z,994.22
2017-09-12T01:33:34.612Z,994.19
2017-09-12T01:35:36.010Z,994.24
2017-09-12T01:37:37.439Z,994.24
2017-09-12T01:39:38.851Z,994.25
2017-09-12T01:41:40.303Z,994.36
2017-09-12T01:43:41.729Z,994.27
2017-09-12T01:45:43.142Z,994.29
2017-09-12T01:47:44.561Z,994.28
2017-09-12T01:49:46.010Z,994.30
2017-09-12T01:51:47.419Z,994.27
2017-09-12T01:53:48.844Z,994.25
2017-09-12T01:55:50.295Z,994.32
2017-09-12T01:58:33.588Z,994.32
2017-09-12T02:00:35.010Z,994.31
2017-09-12T02:02:36.644Z,994.33
2017-09-12T02:04:38.050Z,994.36
2017-09-12T02:06:39.457Z,994.38
2017-09-12T02:08:40.874Z,994.36
2017-09-12T02:10:42.297Z,994.41
2017-09-12T02:12:43.768Z,994.38
2017-09-12T02:15:26.157Z,994.45
2017-09-12T02:17:27.577Z,994.47
2017-09-12T02:19:28.990Z,994.47
2017-09-12T02:21:30.406Z,994.52
2017-09-12T02:23:32.057Z,994.47
2017-09-12T02:25:34.113Z,994.52
2017-09-12T02:27:35.823Z,994.47
2017-09-12T02:29:37.257Z,994.43
2017-09-12T02:31:38.669Z,994.45
2017-09-12T02:33:40.086Z,994.45
2017-09-12T02:35:41.504Z,994.42
2017-09-12T02:37:42.942Z,994.47
2017-09-12T02:39:44.719Z,994.52
2017-09-12T02:41:46.192Z,994.51
2017-09-12T02:43:47.738Z,994.58
2017-09-12T02:45:49.338Z,994.61
2017-09-12T02:47:50.854Z,994.63
2017-09-12T02:49:52.421Z,994.64
2017-09-12T02:51:53.863Z,994.73
2017-09-12T02:53:55.307Z,994.68
2017-09-12T02:55:56.853Z,994.72
2017-09-12T02:57:58.300Z,994.74
2017-09-12T02:59:59.767Z,994.79
2017-09-12T03:02:01.247Z,994.77
2017-09-12T03:04:02.714Z,994.83
2017-09-12T03:06:04.204Z,994.82
2017-09-12T03:08:05.749Z,994.83
2017-09-12T03:10:07.222Z,994.83
2017-09-12T03:12:08.721Z,994.82
2017-09-12T03:14:10.309Z,994.85
2017-09-12T03:16:11.733Z,994.84
2017-09-12T03:18:13.207Z,994.86
2017-09-12T03:20:14.712Z,994.83
2017-09-12T03:22:16.210Z,994.88
2017-09-12T03:24:17.740Z,994.90
2017-09-12T03:26:19.227Z,994.92
2017-09-12T03:28:20.712Z,994.82
2017-09-12T03:30:22.144Z,994.86
2017-09-12T03:32:23.569Z,994.91
2017-09-12T03:34:24.993Z,994.90
2017-09-12T03:36:26.422Z,994.95
2017-09-12T03:38:27.853Z,994.92
2017-09-12T03:40:29.266Z,994.96
2017-09-12T03:42:30.687Z,994.99
2017-09-12T03:44:32.118Z,995.06
2017-09-12T03:46:33.544Z,995.08
2017-09-12T03:48:35.253Z,995.11
2017-09-12T03:50:36.656Z,995.13
2017-09-12T03:52:38.083Z,995.12
2017-09-12T03:54:39.499Z,995.15
2017-09-12T03:56:40.978Z,995.19
2017-09-12T03:58:42.554Z,995.23
2017-09-12T04:00:44.103Z,995.28
2017-09-12T04:02:45.567Z,995.32
2017-09-12T04:04:47.074Z,995.34
2017-09-12T04:06:48.498Z,995.38
2017-09-12T04:08:49.912Z,995.36
2017-09-12T04:10:51.330Z,995.40
2017-09-12T04:12:52.739Z,995.45
2017-09-12T04:14:54.159Z,995.46
2017-09-12T04:16:55.573Z,995.51
2017-09-12T04:18:57.033Z,995.53
2017-09-12T04:20:58.564Z,995.54
2017-09-12T04:23:00.047Z,995.53
2017-09-12T04:25:01.520Z,995.52
2017-09-12T04:27:03.089Z,995.52
2017-09-12T04:29:04.549Z,995.54
2017-09-12T04:31:06.029Z,995.55
2017-09-12T04:33:07.595Z,995.54
2017-09-12T04:35:09.014Z,995.55
2017-09-12T04:37:51.415Z,995.52
2017-09-12T04:39:52.831Z,995.51
2017-09-12T04:41:54.250Z,995.57
2017-09-12T04:43:55.668Z,995.62
2017-09-12T04:45:57.083Z,995.61
2017-09-12T04:47:58.608Z,995.66
2017-09-12T04:50:00.162Z,995.72
2017-09-12T04:52:01.496Z,995.71
2017-09-12T04:54:02.935Z,995.75
2017-09-12T04:56:04.337Z,995.72
2017-09-12T04:58:05.815Z,995.78
2017-09-12T05:00:07.268Z,995.83
2017-09-12T05:02:08.803Z,995.76
2017-09-12T05:04:10.350Z,995.79
2017-09-12T05:06:11.925Z,995.84
2017-09-12T05:08:13.344Z,995.89
2017-09-12T05:10:14.765Z,995.88
2017-09-12T05:12:16.173Z,995.95
2017-09-12T05:14:17.601Z,995.94
2017-09-12T05:16:19.016Z,996.02
2017-09-12T05:18:20.435Z,996.02
2017-09-12T05:20:21.853Z,996.16
2017-09-12T05:22:23.283Z,996.17
2017-09-12T05:25:05.688Z,996.23
2017-09-12T05:27:07.653Z,996.26
2017-09-12T05:29:09.089Z,996.31
2017-09-12T05:31:10.504Z,996.28
2017-09-12T05:33:11.920Z,996.29
2017-09-12T05:35:13.347Z,996.31
2017-09-12T05:37:14.778Z,996.33
2017-09-12T05:39:16.190Z,996.37
2017-09-12T05:41:17.608Z,996.38
2017-09-12T05:43:19.020Z,996.44
2017-09-12T05:45:20.440Z,996.49
2017-09-12T05:47:21.880Z,996.50
2017-09-12T05:49:23.293Z,996.48
2017-09-12T05:51:24.732Z,996.45
2017-09-12T05:53:26.151Z,996.50
2017-09-12T05:55:27.567Z,996.59
2017-09-12T05:57:28.987Z,996.62
2017-09-12T05:59:30.414Z,996.64
2017-09-12T06:01:31.910Z,996.65
2017-09-12T06:03:33.317Z,996.75
2017-09-12T06:05:34.908Z,996.77
2017-09-12T06:07:36.371Z,996.72
2017-09-12T06:09:37.794Z,996.80
2017-09-12T06:12:20.811Z,996.73
2017-09-12T06:14:22.250Z,996.80
2017-09-12T06:16:23.681Z,996.80
2017-09-12T06:18:25.099Z,996.84
2017-09-12T06:20:26.521Z,996.85
2017-09-12T06:22:27.949Z,996.84
2017-09-12T06:24:29.385Z,996.86
2017-09-12T06:26:30.808Z,996.85
2017-09-12T06:28:32.285Z,996.87
2017-09-12T06:30:33.700Z,996.93
2017-09-12T06:32:35.125Z,996.98
2017-09-12T06:34:36.618Z,996.98
2017-09-12T06:36:38.057Z,997.10
2017-09-12T06:38:39.479Z,997.11
2017-09-12T06:40:40.911Z,997.06
2017-09-12T06:42:42.384Z,997.12
2017-09-12T06:44:43.861Z,997.10
2017-09-12T06:46:45.339Z,997.14
2017-09-12T06:48:46.813Z,997.17
2017-09-12T06:50:48.231Z,997.18
2017-09-12T06:52:49.764Z,997.27
2017-09-12T06:54:51.247Z,997.29
2017-09-12T06:56:52.670Z,997.29
2017-09-12T06:59:35.069Z,997.32
2017-09-12T07:01:36.488Z,997.35
2017-09-12T07:03:38.037Z,997.37
2017-09-12T07:05:39.489Z,997.44
2017-09-12T07:07:40.977Z,997.42
2017-09-12T07:09:42.394Z,997.45
2017-09-12T07:11:43.818Z,997.48
2017-09-12T07:13:45.231Z,997.49
2017-09-12T07:15:46.653Z,997.44
2017-09-12T07:17:48.082Z,997.50
2017-09-12T07:19:49.498Z,997.54
2017-09-12T07:21:50.917Z,997.53
2017-09-12T07:23:52.340Z,997.50
2017-09-12T07:25:53.759Z,997.61
2017-09-12T07:27:55.185Z,997.60
2017-09-12T07:29:56.603Z,997.71
2017-09-12T07:31:58.025Z,997.72
2017-09-12T07:33:59.440Z,997.80
2017-09-12T07:36:00.861Z,997.89
2017-09-12T07:38:02.288Z,997.92
2017-09-12T07:40:03.712Z,997.90
2017-09-12T07:42:05.194Z,997.97
2017-09-12T07:44:06.862Z,997.96
2017-09-12T07:46:49.314Z,997.96
2017-09-12T07:48:50.739Z,998.03
2017-09-12T07:50:52.154Z,998.01
2017-09-12T07:52:53.572Z,998.09
2017-09-12T07:54:54.985Z,998.21
2017-09-12T07:56:56.816Z,998.23
2017-09-12T07:58:58.523Z,998.32
2017-09-12T08:00:59.956Z,998.34
2017-09-12T08:03:01.386Z,998.34
2017-09-12T08:05:02.805Z,998.40
2017-09-12T08:07:04.240Z,998.42
2017-09-12T08:09:05.662Z,998.44
2017-09-12T08:11:07.083Z,998.45
2017-09-12T08:13:08.508Z,998.47
2017-09-12T08:15:09.937Z,998.43
2017-09-12T08:17:11.350Z,998.43
2017-09-12T08:19:12.831Z,998.47
2017-09-12T08:21:14.283Z,998.48
2017-09-12T08:23:15.752Z,998.57
2017-09-12T08:25:17.196Z,998.52
2017-09-12T08:27:18.665Z,998.62
2017-09-12T08:29:20.106Z,998.61
2017-09-12T08:31:21.535Z,998.63
2017-09-12T08:33:22.962Z,998.63
2017-09-12T08:36:05.547Z,998.65
2017-09-12T08:38:06.961Z,998.74
2017-09-12T08:40:08.384Z,998.79
2017-09-12T08:42:09.814Z,998.71
2017-09-12T08:44:11.249Z,998.75
2017-09-12T08:46:12.675Z,998.74
2017-09-12T08:48:14.103Z,998.79
2017-09-12T08:50:15.528Z,998.80
2017-09-12T08:52:16.942Z,998.83
2017-09-12T08:54:18.369Z,998.96
2017-09-12T08:56:19.789Z,998.87
2017-09-12T08:58:21.213Z,998.88
2017-09-12T09:00:22.632Z,998.83
2017-09-12T09:02:24.072Z,998.93
2017-09-12T09:04:25.505Z,998.86
2017-09-12T09:07:08.139Z,998.99
2017-09-12T09:09:09.527Z,998.98
2017-09-12T09:11:11.245Z,999.08
2017-09-12T09:13:12.664Z,999.02
2017-09-12T09:15:14.085Z,999.06
2017-09-12T09:17:15.542Z,999.13
2017-09-12T09:19:16.969Z,999.11
2017-09-12T09:21:18.394Z,999.14
2017-09-12T09:23:19.828Z,999.12
2017-09-12T09:25:21.267Z,999.14
2017-09-12T09:27:22.683Z,999.10
2017-09-12T09:29:24.151Z,999.14
2017-09-12T09:31:25.574Z,999.07
2017-09-12T09:33:27.000Z,999.10
2017-09-12T09:35:28.421Z,999.07
2017-09-12T09:37:29.856Z,999.15
2017-09-12T09:39:31.282Z,999.15
2017-09-12T09:41:32.759Z,999.16
2017-09-12T09:43:34.233Z,999.17
2017-09-12T09:45:35.700Z,999.17
2017-09-12T09:47:37.218Z,999.23
2017-09-12T09:49:38.668Z,999.20
2017-09-12T09:51:40.082Z,999.24
2017-09-12T09:53:41.582Z,999.23
2017-09-12T09:55:43.002Z,999.21
2017-09-12T09:57:44.478Z,999.23
2017-09-12T09:59:45.885Z,999.22
2017-09-12T10:01:47.307Z,999.22
2017-09-12T10:03:48.733Z,999.26
2017-09-12T10:05:50.179Z,999.32
2017-09-12T10:07:51.598Z,999.23
2017-09-12T10:09:53.078Z,999.32
2017-09-12T10:11:54.630Z,999.31
2017-09-12T10:13:56.150Z,999.36
2017-09-12T10:15:57.695Z,999.35
2017-09-12T10:17:59.216Z,999.40
2017-09-12T10:20:00.690Z,999.47
2017-09-12T10:22:02.170Z,999.42
2017-09-12T10:24:03.659Z,999.47
2017-09-12T10:26:05.091Z,999.43
2017-09-12T10:28:06.511Z,999.43
2017-09-12T10:30:07.934Z,999.46
2017-09-12T10:32:09.357Z,999.49
2017-09-12T10:34:10.808Z,999.54
2017-09-12T10:36:12.319Z,999.60
2017-09-12T10:38:13.837Z,999.62
2017-09-12T10:40:15.267Z,999.56
2017-09-12T10:42:57.669Z,999.59
2017-09-12T10:44:59.090Z,999.65
2017-09-12T10:47:00.517Z,999.61
2017-09-12T10:49:01.988Z,999.62
2017-09-12T10:51:03.758Z,999.60
2017-09-12T10:53:05.412Z,999.63
2017-09-12T10:55:06.852Z,999.56
2017-09-12T10:57:49.268Z,999.51
2017-09-12T10:59:50.687Z,999.56
2017-09-12T11:01:52.112Z,999.68
2017-09-12T11:03:53.536Z,999.61
2017-09-12T11:05:54.958Z,999.65
2017-09-12T11:07:56.384Z,999.67
2017-09-12T11:09:57.810Z,999.72
2017-09-12T11:11:59.237Z,999.66
2017-09-12T11:14:00.711Z,999.74
2017-09-12T11:16:02.228Z,999.81
2017-09-12T11:18:03.710Z,999.79
2017-09-12T11:20:05.130Z,999.73
2017-09-12T11:22:06.608Z,999.69
2017-09-12T11:24:08.123Z,999.81
2017-09-12T11:26:09.612Z,999.86
2017-09-12T11:28:11.128Z,999.84
2017-09-12T11:30:12.580Z,999.79
2017-09-12T11:32:14.029Z,999.81
2017-09-12T11:34:15.456Z,999.84
2017-09-12T11:36:16.872Z,999.92
2017-09-12T11:38:18.417Z,999.98
2017-09-12T11:40:19.833Z,1000.28
2017-09-12T11:42:21.264Z,1000.26
2017-09-12T11:44:22.701Z,1000.27
2017-09-12T11:46:24.120Z,1000.18
2017-09-12T11:48:25.571Z,1000.12
2017-09-12T11:50:26.994Z,1000.10
2017-09-12T11:52:28.417Z,1000.12
2017-09-12T11:54:29.843Z,1000.16
2017-09-12T11:56:31.266Z,1000.23
2017-09-12T11:58:32.689Z,1000.33
2017-09-12T12:00:34.121Z,1000.39
2017-09-12T12:02:35.549Z,1000.38
2017-09-12T12:04:37.005Z,1000.28
2017-09-12T12:06:38.561Z,1000.22
2017-09-12T12:08:40.035Z,1000.22
2017-09-12T12:10:41.613Z,1000.31
2017-09-12T12:12:43.085Z,1000.30
2017-09-12T12:14:44.573Z,1000.34
2017-09-12T12:17:28.762Z,1000.35
2017-09-12T12:19:30.187Z,1000.25
2017-09-12T12:21:31.606Z,1000.28
2017-09-12T12:23:33.080Z,1000.26
2017-09-12T12:25:34.565Z,1000.27
2017-09-12T12:27:36.053Z,1000.30
2017-09-12T12:29:37.885Z,1000.38
2017-09-12T12:31:39.760Z,1000.47
2017-09-12T12:33:41.283Z,1000.66
2017-09-12T12:35:42.731Z,1000.85
2017-09-12T12:37:44.247Z,1000.89
2017-09-12T12:39:45.724Z,1000.87
2017-09-12T12:41:47.316Z,1000.87
2017-09-12T12:43:48.895Z,1000.90
2017-09-12T12:45:50.385Z,1000.82
2017-09-12T12:47:51.830Z,1001.01
2017-09-12T12:49:53.425Z,1001.14
2017-09-12T12:51:54.849Z,1001.13
2017-09-12T12:53:56.272Z,1001.22
2017-09-12T12:55:57.696Z,1001.03
2017-09-12T12:57:59.120Z,1000.85
2017-09-12T13:00:00.542Z,1000.80
2017-09-12T13:02:01.986Z,1000.82
2017-09-12T13:04:44.375Z,1000.75
2017-09-12T13:06:45.796Z,1000.68
2017-09-12T13:08:47.584Z,1000.75
2017-09-12T13:10:49.020Z,1000.78
2017-09-12T13:12:50.462Z,1000.80
2017-09-12T13:14:51.893Z,1000.78
2017-09-12T13:16:53.316Z,1000.80
2017-09-12T13:19:35.718Z,1000.77
2017-09-12T13:21:37.148Z,1000.79
2017-09-12T13:23:38.575Z,1000.73
2017-09-12T13:25:40.003Z,1000.76
2017-09-12T13:27:41.430Z,1000.73
2017-09-12T13:29:43.017Z,1000.80
2017-09-12T13:31:44.444Z,1000.81
2017-09-12T13:33:45.884Z,1000.77
2017-09-12T13:35:47.320Z,1000.83
2017-09-12T13:37:48.768Z,1000.86
2017-09-12T13:39:50.283Z,1000.89
2017-09-12T13:41:51.801Z,1000.91
2017-09-12T13:43:53.248Z,1000.97
2017-09-12T13:45:54.747Z,1000.96
2017-09-12T13:47:56.238Z,1000.96
2017-09-12T13:49:57.753Z,1000.98
2017-09-12T13:51:59.175Z,1001.06
2017-09-12T13:54:00.607Z,1001.06
2017-09-12T13:56:02.028Z,1001.11
2017-09-12T13:58:03.464Z,1001.13
2017-09-12T14:00:04.998Z,1001.19
2017-09-12T14:02:06.549Z,1001.12
2017-09-12T14:04:08.373Z,1001.19
2017-09-12T14:06:09.783Z,1001.21
2017-09-12T14:08:11.212Z,1001.20
2017-09-12T14:10:12.645Z,1001.25
2017-09-12T14:12:14.064Z,1001.18
2017-09-12T14:14:15.494Z,1001.22
2017-09-12T14:16:16.923Z,1001.31
2017-09-12T14:18:18.340Z,1001.30
2017-09-12T14:20:19.786Z,1001.35
2017-09-12T14:22:21.212Z,1001.29
2017-09-12T14:24:22.636Z,1001.37
2017-09-12T14:26:24.060Z,1001.38
2017-09-12T14:28:25.498Z,1001.42
2017-09-12T14:30:26.933Z,1001.35
2017-09-12T14:32:28.349Z,1001.40
2017-09-12T14:34:29.792Z,1001.47
2017-09-12T14:36:31.270Z,1001.41
2017-09-12T14:39:13.964Z,1001.41
2017-09-12T14:41:15.391Z,1001.47
2017-09-12T14:43:16.816Z,1001.55
2017-09-12T14:45:18.241Z,1001.41
2017-09-12T14:47:19.671Z,1001.46
2017-09-12T14:49:21.098Z,1001.54
2017-09-12T14:51:22.524Z,1001.59
2017-09-12T14:53:23.951Z,1001.54
2017-09-12T14:56:06.348Z,1001.56
2017-09-12T14:58:07.774Z,1001.58
2017-09-12T15:00:09.198Z,1001.74
2017-09-12T15:02:10.631Z,1001.64
2017-09-12T15:04:12.066Z,1001.72
2017-09-12T15:06:13.477Z,1001.66
2017-09-12T15:08:14.907Z,1001.76
2017-09-12T15:10:16.345Z,1001.71
2017-09-12T15:12:17.827Z,1001.68
2017-09-12T15:14:19.389Z,1001.67
2017-09-12T15:16:20.817Z,1001.74
2017-09-12T15:18:22.309Z,1001.75
2017-09-12T15:20:23.835Z,1001.75
2017-09-12T15:22:25.267Z,1001.76
2017-09-12T15:24:26.764Z,1001.72
2017-09-12T15:26:28.199Z,1001.78
2017-09-12T15:28:29.702Z,1001.74
2017-09-12T15:30:31.179Z,1001.80
2017-09-12T15:32:32.779Z,1001.81
2017-09-12T15:34:34.279Z,1001.85
2017-09-12T15:36:35.802Z,1001.87
2017-09-12T15:38:37.312Z,1001.86
2017-09-12T15:40:38.864Z,1001.83
2017-09-12T15:42:40.687Z,1001.87
2017-09-12T15:44:42.159Z,1001.92
2017-09-12T15:46:43.737Z,1001.91
2017-09-12T15:48:45.238Z,1001.90
2017-09-12T15:50:46.729Z,1001.92
2017-09-12T15:52:48.310Z,1001.94
2017-09-12T15:54:50.082Z,1001.96
2017-09-12T15:56:51.620Z,1001.98
2017-09-12T15:58:53.440Z,1001.98
2017-09-12T16:00:55.112Z,1002.04
2017-09-12T16:02:56.695Z,1002.01
2017-09-12T16:04:58.310Z,1001.98
2017-09-12T16:06:59.870Z,1002.03
2017-09-12T16:09:01.220Z,1002.07
2017-09-12T16:11:02.711Z,1002.04
2017-09-12T16:13:04.246Z,1002.08
2017-09-12T16:15:05.761Z,1002.19
2017-09-12T16:17:07.327Z,1002.17
2017-09-12T16:19:08.854Z,1002.18
2017-09-12T16:21:10.343Z,1002.22
2017-09-12T16:23:11.808Z,1002.24
2017-09-12T16:25:13.283Z,1002.21
2017-09-12T16:27:14.703Z,1002.22
2017-09-12T16:29:16.129Z,1002.18
2017-09-12T16:31:17.553Z,1002.21
2017-09-12T16:33:19.011Z,1002.25
2017-09-12T16:35:20.434Z,1002.26
2017-09-12T16:37:21.859Z,1002.29
2017-09-12T16:39:23.285Z,1002.32
2017-09-12T16:41:24.702Z,1002.36
2017-09-12T16:43:26.135Z,1002.38
2017-09-12T16:45:27.560Z,1002.37
2017-09-12T16:47:28.984Z,1002.43
2017-09-12T16:49:30.408Z,1002.40
2017-09-12T16:51:31.835Z,1002.41
2017-09-12T16:53:33.259Z,1002.42
2017-09-12T16:55:34.673Z,1002.37
2017-09-12T16:57:36.103Z,1002.35
2017-09-12T16:59:37.526Z,1002.37
2017-09-12T17:01:38.944Z,1002.36
2017-09-12T17:03:40.370Z,1002.42
2017-09-12T17:05:41.807Z,1002.38
2017-09-12T17:07:43.219Z,1002.40
2017-09-12T17:09:44.732Z,1002.36
2017-09-12T17:11:46.230Z,1002.34
2017-09-12T17:13:47.712Z,1002.35
2017-09-12T17:15:49.249Z,1002.34
2017-09-12T17:17:50.787Z,1002.39
2017-09-12T17:19:52.270Z,1002.40
2017-09-12T17:21:53.732Z,1002.47
2017-09-12T17:23:55.262Z,1002.45
2017-09-12T17:25:56.763Z,1002.44
2017-09-12T17:27:58.222Z,1002.42
2017-09-12T17:29:59.734Z,1002.41
2017-09-12T17:32:01.571Z,1002.38
2017-09-12T17:34:03.281Z,1002.37
2017-09-12T17:36:04.804Z,1002.36
2017-09-12T17:38:06.420Z,1002.42
2017-09-12T17:40:07.960Z,1002.46
2017-09-12T17:42:09.451Z,1002.45
2017-09-12T17:44:11.009Z,1002.47
2017-09-12T17:46:12.523Z,1002.50
2017-09-12T17:48:55.208Z,1002.47
2017-09-12T17:50:56.631Z,1002.45
2017-09-12T17:52:58.056Z,1002.50
2017-09-12T17:54:59.699Z,1002.47
2017-09-12T17:57:01.228Z,1002.48
2017-09-12T17:59:02.713Z,1002.52
2017-09-12T18:01:04.153Z,1002.58
2017-09-12T18:03:05.574Z,1002.58
2017-09-12T18:05:48.387Z,1002.65
2017-09-12T18:07:49.639Z,1002.66
2017-09-12T18:09:51.058Z,1002.69
2017-09-12T18:11:52.942Z,1002.65
2017-09-12T18:13:54.347Z,1002.65
2017-09-12T18:15:55.762Z,1002.68
2017-09-12T18:17:57.182Z,1002.71
2017-09-12T18:19:58.601Z,1002.73
2017-09-12T18:22:00.020Z,1002.74
2017-09-12T18:24:01.447Z,1002.75
2017-09-12T18:26:02.868Z,1002.77
2017-09-12T18:28:04.297Z,1002.80
2017-09-12T18:30:05.722Z,1002.81
2017-09-12T18:32:07.131Z,1002.84
2017-09-12T18:34:49.530Z,1002.89
2017-09-12T18:36:50.951Z,1002.90
2017-09-12T18:38:52.377Z,1002.88
2017-09-12T18:40:54.267Z,1002.92
2017-09-12T18:42:55.773Z,1002.89
2017-09-12T18:44:57.362Z,1002.96
2017-09-12T18:47:39.744Z,1002.98
2017-09-12T18:49:41.161Z,1003.01
2017-09-12T18:51:42.587Z,1003.03
2017-09-12T18:53:44.010Z,1003.06
2017-09-12T18:55:45.976Z,1003.06
2017-09-12T18:57:47.519Z,1003.12
2017-09-12T18:59:49.158Z,1003.09
2017-09-12T19:01:50.590Z,1003.06
2017-09-12T19:03:52.008Z,1003.02
2017-09-12T19:05:53.426Z,1003.01
2017-09-12T19:07:54.843Z,1003.04
2017-09-12T19:09:56.280Z,1003.07
2017-09-12T19:11:57.749Z,1003.06
2017-09-12T19:13:59.169Z,1003.09
2017-09-12T19:16:00.589Z,1003.06
2017-09-12T19:18:02.006Z,1003.08
2017-09-12T19:20:44.410Z,1003.04
2017-09-12T19:22:45.829Z,1003.04
2017-09-12T19:24:47.248Z,1003.02
2017-09-12T19:26:48.673Z,1003.01
2017-09-12T19:28:50.087Z,1003.03
2017-09-12T19:30:51.504Z,1003.02
2017-09-12T19:32:52.939Z,1003.03
2017-09-12T19:34:54.338Z,1003.02
2017-09-12T19:36:55.757Z,1002.99
2017-09-12T19:38:57.182Z,1003.05
2017-09-12T19:40:58.599Z,1003.00
2017-09-12T19:43:00.616Z,1003.04
2017-09-12T19:45:01.990Z,1003.04
2017-09-12T19:47:03.460Z,1002.96
2017-09-12T19:49:04.851Z,1003.00
2017-09-12T19:51:06.268Z,1002.96
2017-09-12T19:53:48.862Z,1002.98
2017-09-12T19:55:50.546Z,1002.92
2017-09-12T19:57:51.931Z,1002.98
2017-09-12T19:59:53.350Z,1003.00
2017-09-12T20:01:54.802Z,1002.96
2017-09-12T20:03:56.223Z,1002.95
2017-09-12T20:05:57.883Z,1002.91
2017-09-12T20:08:40.315Z,1002.94
2017-09-12T20:10:41.742Z,1003.01
2017-09-12T20:12:43.160Z,1003.03
2017-09-12T20:14:44.573Z,1003.02
2017-09-12T20:16:45.996Z,1003.07
2017-09-12T20:18:47.538Z,1003.08
2017-09-12T20:20:48.968Z,1003.11
2017-09-12T20:22:50.406Z,1003.07
2017-09-12T20:25:33.610Z,1003.06
2017-09-12T20:27:34.998Z,1003.05
2017-09-12T20:29:36.413Z,1003.02
2017-09-12T20:31:37.902Z,1002.92
2017-09-12T20:33:39.313Z,1002.83
2017-09-12T20:35:40.750Z,1002.83
2017-09-12T20:37:42.167Z,1002.78
2017-09-12T20:39:43.590Z,1002.80
2017-09-12T20:41:45.007Z,1002.85
2017-09-12T20:43:46.864Z,1002.84
2017-09-12T20:45:48.512Z,1002.82
2017-09-12T20:47:49.933Z,1002.83
2017-09-12T20:49:51.387Z,1002.84
2017-09-12T20:51:52.803Z,1002.82
2017-09-12T20:53:54.227Z,1002.81
2017-09-12T20:55:55.668Z,1002.77
2017-09-12T20:57:57.100Z,1002.79
2017-09-12T20:59:58.529Z,1002.80
2017-09-12T21:01:59.950Z,1002.97
2017-09-12T21:04:01.367Z,1003.01
2017-09-12T21:06:02.806Z,1002.89
2017-09-12T21:08:04.229Z,1002.83
2017-09-12T21:10:05.645Z,1002.82
2017-09-12T21:12:07.451Z,1002.79
2017-09-12T21:14:08.942Z,1002.79
2017-09-12T21:16:10.355Z,1002.71
2017-09-12T21:18:11.830Z,1002.61
2017-09-12T21:20:13.426Z,1002.66
2017-09-12T21:22:15.003Z,1002.67
2017-09-12T21:24:16.598Z,1002.62
2017-09-12T21:26:18.163Z,1002.70
2017-09-12T21:28:19.643Z,1002.62
2017-09-12T21:30:21.163Z,1002.59
2017-09-12T21:32:22.640Z,1002.58
2017-09-12T21:34:24.088Z,1002.56
2017-09-12T21:36:25.568Z,1002.49
2017-09-12T21:38:26.981Z,1002.51
2017-09-12T21:40:28.407Z,1002.56
2017-09-12T21:42:29.835Z,1002.55
2017-09-12T21:44:31.238Z,1002.53
2017-09-12T21:46:32.666Z,1002.52
2017-09-12T21:48:34.093Z,1002.56
2017-09-12T21:50:35.524Z,1002.49
2017-09-12T21:52:36.983Z,1002.53
2017-09-12T21:54:38.465Z,1002.47
2017-09-12T21:56:40.038Z,1002.41
2017-09-12T21:58:41.562Z,1002.33
2017-09-12T22:00:43.060Z,1002.20
2017-09-12T22:03:25.450Z,1002.12
2017-09-12T22:05:26.863Z,1002.06
2017-09-12T22:07:28.283Z,1001.94
2017-09-12T22:09:29.700Z,1001.86
2017-09-12T22:11:31.115Z,1001.94
2017-09-12T22:13:32.531Z,1002.01
2017-09-12T22:15:33.946Z,1002.02
2017-09-12T22:17:35.373Z,1002.00
2017-09-12T22:19:36.786Z,1001.98
2017-09-12T22:21:38.203Z,1001.97
2017-09-12T22:23:39.623Z,1001.92
2017-09-12T22:25:41.040Z,1001.90
2017-09-12T22:27:43.004Z,1001.88
2017-09-12T22:29:44.376Z,1001.90
2017-09-12T22:31:45.791Z,1001.83
2017-09-12T22:33:47.200Z,1001.80
2017-09-12T22:35:48.616Z,1001.83
2017-09-12T22:37:50.029Z,1001.82
2017-09-12T22:39:51.450Z,1001.77
2017-09-12T22:41:52.885Z,1001.67
2017-09-12T22:43:54.359Z,1001.63
2017-09-12T22:45:55.914Z,1001.58
2017-09-12T22:47:57.408Z,1001.53
2017-09-12T22:50:39.798Z,1001.31
2017-09-12T22:52:41.768Z,1001.26
2017-09-12T22:54:43.182Z,1001.18
2017-09-12T22:56:44.596Z,1001.10
2017-09-12T22:58:46.036Z,1001.15
2017-09-12T23:00:47.442Z,1001.12
2017-09-12T23:02:48.860Z,1001.08
2017-09-12T23:04:50.272Z,1000.95
2017-09-12T23:06:51.683Z,1000.94
2017-09-12T23:08:53.127Z,1000.95
2017-09-12T23:10:54.553Z,1000.87
2017-09-12T23:12:55.973Z,1000.84
2017-09-12T23:14:57.383Z,1000.80
2017-09-12T23:16:58.802Z,1000.77
2017-09-12T23:19:00.224Z,1000.67
2017-09-12T23:21:01.635Z,1000.57
2017-09-12T23:23:03.041Z,1000.64
2017-09-12T23:25:04.516Z,1000.57
2017-09-12T23:27:05.926Z,1000.49
2017-09-12T23:29:07.341Z,1000.50
2017-09-12T23:31:08.757Z,1000.52
2017-09-12T23:33:10.179Z,1000.43
2017-09-12T23:35:11.738Z,1000.34
2017-09-12T23:37:54.112Z,1000.26
2017-09-12T23:39:55.529Z,1000.28
2017-09-12T23:41:56.945Z,1000.35
2017-09-12T23:43:58.365Z,1000.25
2017-09-12T23:46:00.217Z,1000.15
2017-09-12T23:48:01.880Z,1000.04
2017-09-12T23:50:03.297Z,999.96
2017-09-12T23:52:04.712Z,999.87
2017-09-12T23:54:47.131Z,999.84
2017-09-12T23:56:48.532Z,999.72
2017-09-12T23:58:49.947Z,999.63
